sensor_id;sensor_type;location;lat;lon;timestamp;pressure;altitude;pressure_sealevel;temperature;humidity
11912;BME280;6016;41.928;25.556;2023-03-01T00:02:14;99876.81;;;8.91;87.77
11912;BME280;6016;41.928;25.556;2023-03-01T00:04:41;99853.75;;;8.94;86.97
11912;BME280;6016;41.928;25.556;2023-03-01T00:07:08;99855.13;;;8.87;86.53
11912;BME280;6016;41.928;25.556;2023-03-01T00:09:37;99835.09;;;8.73;87.17
11912;BME280;6016;41.928;25.556;2023-03-01T00:12:05;99858.47;;;8.89;87.27
11912;BME280;6016;41.928;25.556;2023-03-01T00:14:32;99856.81;;;8.88;87.92
11912;BME280;6016;41.928;25.556;2023-03-01T00:16:59;99858.47;;;9.02;87.98
11912;BME280;6016;41.928;25.556;2023-03-01T00:19:27;99844.06;;;8.95;88.11
11912;BME280;6016;41.928;25.556;2023-03-01T00:21:54;99852.34;;;9.01;85.87
11912;BME280;6016;41.928;25.556;2023-03-01T00:24:21;99800.69;;;8.63;86.32
11912;BME280;6016;41.928;25.556;2023-03-01T00:26:52;99849.72;;;9.01;86.55
11912;BME280;6016;41.928;25.556;2023-03-01T00:29:20;99846.91;;;8.92;86.13
11912;BME280;6016;41.928;25.556;2023-03-01T00:31:47;99852.56;;;8.98;85.96
11912;BME280;6016;41.928;25.556;2023-03-01T00:34:14;99847.97;;;8.89;86.99
11912;BME280;6016;41.928;25.556;2023-03-01T00:36:40;99840.13;;;9.00;87.13
11912;BME280;6016;41.928;25.556;2023-03-01T00:39:10;99847.31;;;8.98;85.83
11912;BME280;6016;41.928;25.556;2023-03-01T00:41:38;99852.25;;;9.03;86.80
11912;BME280;6016;41.928;25.556;2023-03-01T00:44:06;99845.94;;;9.06;86.57
11912;BME280;6016;41.928;25.556;2023-03-01T00:46:33;99844.66;;;9.11;86.38
11912;BME280;6016;41.928;25.556;2023-03-01T00:49:00;99840.59;;;9.19;85.93
11912;BME280;6016;41.928;25.556;2023-03-01T00:51:28;99806.00;;;8.88;85.68
11912;BME280;6016;41.928;25.556;2023-03-01T00:53:56;99842.78;;;9.00;85.56
11912;BME280;6016;41.928;25.556;2023-03-01T00:56:23;99804.94;;;8.53;86.92
11912;BME280;6016;41.928;25.556;2023-03-01T00:58:50;99806.28;;;8.58;87.52
11912;BME280;6016;41.928;25.556;2023-03-01T01:01:20;99826.44;;;8.71;87.80
11912;BME280;6016;41.928;25.556;2023-03-01T01:03:50;99811.91;;;8.78;88.09
11912;BME280;6016;41.928;25.556;2023-03-01T01:06:18;99817.19;;;8.78;86.92
11912;BME280;6016;41.928;25.556;2023-03-01T01:08:45;99808.78;;;8.73;87.49
11912;BME280;6016;41.928;25.556;2023-03-01T01:11:12;99520.19;;;6.92;86.01
11912;BME280;6016;41.928;25.556;2023-03-01T01:13:40;99805.16;;;8.87;86.14
11912;BME280;6016;41.928;25.556;2023-03-01T01:16:07;99807.38;;;8.80;86.31
11912;BME280;6016;41.928;25.556;2023-03-01T01:18:35;99811.88;;;8.91;85.99
11912;BME280;6016;41.928;25.556;2023-03-01T01:21:07;99809.75;;;8.96;86.20
11912;BME280;6016;41.928;25.556;2023-03-01T01:23:34;99805.88;;;8.89;85.66
11912;BME280;6016;41.928;25.556;2023-03-01T01:26:05;99801.88;;;8.59;87.36
11912;BME280;6016;41.928;25.556;2023-03-01T01:28:32;99804.56;;;8.70;86.87
11912;BME280;6016;41.928;25.556;2023-03-01T01:30:59;99725.19;;;8.28;87.29
11912;BME280;6016;41.928;25.556;2023-03-01T01:33:26;99776.19;;;8.50;88.14
11912;BME280;6016;41.928;25.556;2023-03-01T01:35:54;99802.44;;;8.76;86.67
11912;BME280;6016;41.928;25.556;2023-03-01T01:38:21;99807.78;;;8.87;85.99
11912;BME280;6016;41.928;25.556;2023-03-01T01:40:49;99809.13;;;8.93;86.38
11912;BME280;6016;41.928;25.556;2023-03-01T01:43:20;99812.63;;;8.80;87.01
11912;BME280;6016;41.928;25.556;2023-03-01T01:45:47;99807.09;;;8.72;86.56
11912;BME280;6016;41.928;25.556;2023-03-01T01:48:17;99766.25;;;8.55;86.28
11912;BME280;6016;41.928;25.556;2023-03-01T01:50:45;99787.34;;;8.66;86.73
11912;BME280;6016;41.928;25.556;2023-03-01T01:53:19;99745.94;;;8.57;86.35
11912;BME280;6016;41.928;25.556;2023-03-01T01:55:49;99814.44;;;9.04;86.30
11912;BME280;6016;41.928;25.556;2023-03-01T01:58:19;99765.59;;;8.89;85.11
11912;BME280;6016;41.928;25.556;2023-03-01T02:00:48;99771.06;;;8.85;84.80
11912;BME280;6016;41.928;25.556;2023-03-01T02:03:19;99770.56;;;8.80;84.66
11912;BME280;6016;41.928;25.556;2023-03-01T02:05:51;99811.53;;;8.96;85.21
11912;BME280;6016;41.928;25.556;2023-03-01T02:08:27;99761.97;;;8.65;85.47
11912;BME280;6016;41.928;25.556;2023-03-01T02:10:56;99807.94;;;8.97;85.80
11912;BME280;6016;41.928;25.556;2023-03-01T02:13:25;99719.38;;;8.36;85.22
11912;BME280;6016;41.928;25.556;2023-03-01T02:15:52;99804.91;;;8.90;86.06
11912;BME280;6016;41.928;25.556;2023-03-01T02:18:21;99804.91;;;8.90;86.13
11912;BME280;6016;41.928;25.556;2023-03-01T02:20:56;99790.72;;;8.93;85.84
11912;BME280;6016;41.928;25.556;2023-03-01T02:23:27;99742.44;;;8.56;85.49
11912;BME280;6016;41.928;25.556;2023-03-01T02:25:59;99787.50;;;9.00;85.52
11912;BME280;6016;41.928;25.556;2023-03-01T02:28:34;99793.50;;;9.03;85.09
11912;BME280;6016;41.928;25.556;2023-03-01T02:31:03;99796.59;;;8.96;85.20
11912;BME280;6016;41.928;25.556;2023-03-01T02:33:48;99571.44;;;7.48;85.66
11912;BME280;6016;41.928;25.556;2023-03-01T02:36:19;99783.38;;;8.85;86.87
11912;BME280;6016;41.928;25.556;2023-03-01T02:38:47;99784.22;;;8.85;86.87
11912;BME280;6016;41.928;25.556;2023-03-01T02:41:15;99778.50;;;8.92;86.40
11912;BME280;6016;41.928;25.556;2023-03-01T02:43:44;99776.16;;;9.00;85.63
11912;BME280;6016;41.928;25.556;2023-03-01T02:46:14;99773.63;;;8.98;84.96
11912;BME280;6016;41.928;25.556;2023-03-01T02:48:44;99717.41;;;8.64;84.75
11912;BME280;6016;41.928;25.556;2023-03-01T02:54:10;99779.84;;;8.97;86.06
11912;BME280;6016;41.928;25.556;2023-03-01T02:56:40;99783.09;;;8.77;85.99
11912;BME280;6016;41.928;25.556;2023-03-01T02:59:09;99785.47;;;8.55;86.75
11912;BME280;6016;41.928;25.556;2023-03-01T03:01:36;99776.47;;;8.71;87.20
11912;BME280;6016;41.928;25.556;2023-03-01T03:04:04;99756.06;;;8.50;87.24
11912;BME280;6016;41.928;25.556;2023-03-01T03:06:32;99779.84;;;8.73;87.15
11912;BME280;6016;41.928;25.556;2023-03-01T03:08:59;99777.25;;;8.60;86.85
11912;BME280;6016;41.928;25.556;2023-03-01T03:11:26;99740.16;;;8.39;87.44
11912;BME280;6016;41.928;25.556;2023-03-01T03:13:53;99722.88;;;8.10;88.50
11912;BME280;6016;41.928;25.556;2023-03-01T03:16:21;99751.66;;;8.25;88.82
11912;BME280;6016;41.928;25.556;2023-03-01T03:18:48;99782.09;;;8.40;89.32
11912;BME280;6016;41.928;25.556;2023-03-01T03:21:15;99772.75;;;8.49;88.05
11912;BME280;6016;41.928;25.556;2023-03-01T03:23:43;99719.47;;;8.34;87.91
11912;BME280;6016;41.928;25.556;2023-03-01T03:26:10;99744.25;;;8.43;88.07
11912;BME280;6016;41.928;25.556;2023-03-01T03:28:38;99752.63;;;8.61;87.80
11912;BME280;6016;41.928;25.556;2023-03-01T03:31:05;99659.91;;;8.22;88.35
11912;BME280;6016;41.928;25.556;2023-03-01T03:33:34;99755.66;;;8.68;87.04
11912;BME280;6016;41.928;25.556;2023-03-01T03:36:01;99760.28;;;8.64;87.32
11912;BME280;6016;41.928;25.556;2023-03-01T03:38:28;99765.75;;;8.74;86.99
11912;BME280;6016;41.928;25.556;2023-03-01T03:41:00;99759.22;;;8.80;86.59
11912;BME280;6016;41.928;25.556;2023-03-01T03:43:27;99724.66;;;8.60;87.63
11912;BME280;6016;41.928;25.556;2023-03-01T03:45:54;99737.16;;;8.69;87.53
11912;BME280;6016;41.928;25.556;2023-03-01T03:48:22;99723.38;;;8.66;86.84
11912;BME280;6016;41.928;25.556;2023-03-01T03:50:52;99749.75;;;8.77;88.08
11912;BME280;6016;41.928;25.556;2023-03-01T03:53:19;99652.81;;;7.98;87.54
11912;BME280;6016;41.928;25.556;2023-03-01T03:55:46;99734.47;;;8.58;87.74
11912;BME280;6016;41.928;25.556;2023-03-01T03:58:15;99444.16;;;6.79;86.75
11912;BME280;6016;41.928;25.556;2023-03-01T04:00:46;99750.22;;;8.82;87.19
11912;BME280;6016;41.928;25.556;2023-03-01T04:03:14;99740.34;;;8.86;86.07
11912;BME280;6016;41.928;25.556;2023-03-01T04:05:42;99742.56;;;8.79;87.02
11912;BME280;6016;41.928;25.556;2023-03-01T04:08:11;99742.56;;;8.79;87.62
11912;BME280;6016;41.928;25.556;2023-03-01T04:10:40;99746.31;;;8.64;87.04
11912;BME280;6016;41.928;25.556;2023-03-01T04:13:09;99742.78;;;8.52;87.57
11912;BME280;6016;41.928;25.556;2023-03-01T04:15:37;99278.31;;;5.74;87.30
11912;BME280;6016;41.928;25.556;2023-03-01T04:18:04;99750.66;;;8.52;87.99
11912;BME280;6016;41.928;25.556;2023-03-01T04:20:33;99742.91;;;8.50;88.12
11912;BME280;6016;41.928;25.556;2023-03-01T04:23:02;99722.81;;;8.36;88.59
11912;BME280;6016;41.928;25.556;2023-03-01T04:25:37;99701.38;;;8.05;89.76
11912;BME280;6016;41.928;25.556;2023-03-01T04:28:04;99759.00;;;8.33;88.96
11912;BME280;6016;41.928;25.556;2023-03-01T04:30:32;99760.41;;;8.50;88.24
11912;BME280;6016;41.928;25.556;2023-03-01T04:33:02;99764.97;;;8.61;88.16
11912;BME280;6016;41.928;25.556;2023-03-01T04:35:30;99763.28;;;8.60;87.98
11912;BME280;6016;41.928;25.556;2023-03-01T04:37:57;99753.50;;;8.62;87.55
11912;BME280;6016;41.928;25.556;2023-03-01T04:40:24;98927.41;;;3.47;86.87
11912;BME280;6016;41.928;25.556;2023-03-01T04:42:52;99758.69;;;8.75;87.67
11912;BME280;6016;41.928;25.556;2023-03-01T04:45:19;99700.03;;;8.24;88.18
11912;BME280;6016;41.928;25.556;2023-03-01T04:47:46;99674.09;;;8.19;88.50
11912;BME280;6016;41.928;25.556;2023-03-01T04:50:15;99762.44;;;8.59;87.67
11912;BME280;6016;41.928;25.556;2023-03-01T04:52:46;99766.00;;;8.58;87.79
11912;BME280;6016;41.928;25.556;2023-03-01T04:55:13;99725.28;;;8.26;87.60
11912;BME280;6016;41.928;25.556;2023-03-01T04:57:40;99761.31;;;8.50;87.55
11912;BME280;6016;41.928;25.556;2023-03-01T05:00:11;99757.78;;;8.50;87.49
11912;BME280;6016;41.928;25.556;2023-03-01T05:02:51;99734.34;;;8.22;88.53
11912;BME280;6016;41.928;25.556;2023-03-01T05:05:24;99768.94;;;8.40;88.07
11912;BME280;6016;41.928;25.556;2023-03-01T05:07:53;99764.66;;;8.39;89.43
11912;BME280;6016;41.928;25.556;2023-03-01T05:10:20;99721.03;;;8.37;89.22
11912;BME280;6016;41.928;25.556;2023-03-01T05:12:47;99742.25;;;8.47;87.97
11912;BME280;6016;41.928;25.556;2023-03-01T05:15:16;99763.31;;;8.71;87.30
11912;BME280;6016;41.928;25.556;2023-03-01T05:17:42;99747.53;;;8.71;87.36
11912;BME280;6016;41.928;25.556;2023-03-01T05:20:10;99762.72;;;8.67;87.82
11912;BME280;6016;41.928;25.556;2023-03-01T05:22:38;99764.28;;;8.70;87.56
11912;BME280;6016;41.928;25.556;2023-03-01T05:25:05;99762.53;;;8.57;86.30
11912;BME280;6016;41.928;25.556;2023-03-01T05:27:33;99764.66;;;8.52;88.51
11912;BME280;6016;41.928;25.556;2023-03-01T05:30:00;99771.38;;;8.56;87.51
11912;BME280;6016;41.928;25.556;2023-03-01T05:32:40;99765.75;;;8.24;87.90
11912;BME280;6016;41.928;25.556;2023-03-01T05:35:09;99768.38;;;8.24;87.97
11912;BME280;6016;41.928;25.556;2023-03-01T05:37:39;99769.63;;;8.18;89.48
11912;BME280;6016;41.928;25.556;2023-03-01T05:40:08;99764.28;;;8.20;89.21
11912;BME280;6016;41.928;25.556;2023-03-01T05:42:42;99772.34;;;8.29;91.04
11912;BME280;6016;41.928;25.556;2023-03-01T05:45:10;99768.47;;;8.35;90.00
11912;BME280;6016;41.928;25.556;2023-03-01T05:47:39;99774.22;;;8.40;89.14
11912;BME280;6016;41.928;25.556;2023-03-01T05:50:11;99776.97;;;8.39;89.04
11912;BME280;6016;41.928;25.556;2023-03-01T05:52:38;99776.13;;;8.38;88.87
11912;BME280;6016;41.928;25.556;2023-03-01T05:55:06;99713.88;;;7.88;88.62
11912;BME280;6016;41.928;25.556;2023-03-01T05:57:33;99771.97;;;8.10;88.87
11912;BME280;6016;41.928;25.556;2023-03-01T05:59:59;99778.97;;;8.35;88.99
11912;BME280;6016;41.928;25.556;2023-03-01T06:02:26;99761.25;;;8.13;89.96
11912;BME280;6016;41.928;25.556;2023-03-01T06:04:56;99772.16;;;8.07;90.46
11912;BME280;6016;41.928;25.556;2023-03-01T06:07:22;99761.25;;;8.13;91.64
11912;BME280;6016;41.928;25.556;2023-03-01T06:09:49;99774.06;;;8.18;90.40
11912;BME280;6016;41.928;25.556;2023-03-01T06:12:16;99783.09;;;8.26;89.83
11912;BME280;6016;41.928;25.556;2023-03-01T06:14:45;99720.19;;;7.86;89.99
11912;BME280;6016;41.928;25.556;2023-03-01T06:17:11;99774.16;;;8.29;89.83
11912;BME280;6016;41.928;25.556;2023-03-01T06:19:38;99766.13;;;8.43;90.30
11912;BME280;6016;41.928;25.556;2023-03-01T06:22:06;99788.53;;;8.49;88.30
11912;BME280;6016;41.928;25.556;2023-03-01T06:24:33;99789.34;;;8.50;89.19
11912;BME280;6016;41.928;25.556;2023-03-01T06:27:00;99789.28;;;8.51;89.19
11912;BME280;6016;41.928;25.556;2023-03-01T06:29:27;99769.19;;;8.50;88.08
11912;BME280;6016;41.928;25.556;2023-03-01T06:31:54;99790.63;;;8.44;89.81
11912;BME280;6016;41.928;25.556;2023-03-01T06:34:21;99788.88;;;8.19;89.53
11912;BME280;6016;41.928;25.556;2023-03-01T06:36:48;99792.66;;;8.27;90.68
11912;BME280;6016;41.928;25.556;2023-03-01T06:39:16;99786.66;;;8.25;90.37
11912;BME280;6016;41.928;25.556;2023-03-01T06:41:43;99794.91;;;8.45;91.17
11912;BME280;6016;41.928;25.556;2023-03-01T06:44:10;99791.91;;;8.51;89.83
11912;BME280;6016;41.928;25.556;2023-03-01T06:46:36;99797.13;;;8.64;90.15
11912;BME280;6016;41.928;25.556;2023-03-01T06:49:03;99741.63;;;8.43;88.11
11912;BME280;6016;41.928;25.556;2023-03-01T06:51:35;99770.50;;;8.69;88.14
11912;BME280;6016;41.928;25.556;2023-03-01T06:54:02;99797.53;;;8.95;88.32
11912;BME280;6016;41.928;25.556;2023-03-01T06:56:30;99714.19;;;8.47;87.60
11912;BME280;6016;41.928;25.556;2023-03-01T06:58:57;99806.16;;;8.97;87.07
11912;BME280;6016;41.928;25.556;2023-03-01T07:01:24;99796.38;;;8.75;86.34
11912;BME280;6016;41.928;25.556;2023-03-01T07:03:51;99772.22;;;8.57;86.86
11912;BME280;6016;41.928;25.556;2023-03-01T07:06:17;99798.84;;;8.52;88.10
11912;BME280;6016;41.928;25.556;2023-03-01T07:08:44;99798.78;;;8.65;88.56
11912;BME280;6016;41.928;25.556;2023-03-01T07:11:12;99800.69;;;8.63;89.45
11912;BME280;6016;41.928;25.556;2023-03-01T07:13:40;99773.69;;;8.61;89.53
11912;BME280;6016;41.928;25.556;2023-03-01T07:16:07;99757.59;;;8.53;88.09
11912;BME280;6016;41.928;25.556;2023-03-01T07:18:34;99809.38;;;8.77;87.78
11912;BME280;6016;41.928;25.556;2023-03-01T07:21:04;99800.50;;;8.66;88.62
11912;BME280;6016;41.928;25.556;2023-03-01T07:23:31;99797.50;;;8.71;88.10
11912;BME280;6016;41.928;25.556;2023-03-01T07:25:58;99801.03;;;8.58;88.64
11912;BME280;6016;41.928;25.556;2023-03-01T07:28:26;99803.72;;;8.70;89.67
11912;BME280;6016;41.928;25.556;2023-03-01T07:30:54;99744.88;;;8.47;88.33
11912;BME280;6016;41.928;25.556;2023-03-01T07:33:21;99791.34;;;8.96;88.42
11912;BME280;6016;41.928;25.556;2023-03-01T07:35:48;99794.44;;;9.01;87.48
11912;BME280;6016;41.928;25.556;2023-03-01T07:38:15;99790.88;;;9.03;87.04
11912;BME280;6016;41.928;25.556;2023-03-01T07:40:42;99781.75;;;8.95;87.95
11912;BME280;6016;41.928;25.556;2023-03-01T07:43:09;99727.47;;;8.70;87.82
11912;BME280;6016;41.928;25.556;2023-03-01T07:45:36;99739.00;;;8.80;87.02
11912;BME280;6016;41.928;25.556;2023-03-01T07:48:04;99770.63;;;8.92;87.00
11912;BME280;6016;41.928;25.556;2023-03-01T07:50:31;99775.59;;;8.83;87.31
11912;BME280;6016;41.928;25.556;2023-03-01T07:52:58;99749.91;;;8.63;87.83
11912;BME280;6016;41.928;25.556;2023-03-01T07:55:25;99772.63;;;8.88;87.90
11912;BME280;6016;41.928;25.556;2023-03-01T07:57:52;99777.81;;;8.77;88.28
11912;BME280;6016;41.928;25.556;2023-03-01T08:00:19;99773.41;;;8.77;88.86
11912;BME280;6016;41.928;25.556;2023-03-01T08:02:46;99773.75;;;8.72;89.51
11912;BME280;6016;41.928;25.556;2023-03-01T08:05:14;99775.97;;;8.90;88.89
11912;BME280;6016;41.928;25.556;2023-03-01T08:07:41;99798.44;;;8.83;87.96
11912;BME280;6016;41.928;25.556;2023-03-01T08:10:10;99779.66;;;8.63;88.18
11912;BME280;6016;41.928;25.556;2023-03-01T08:12:39;99728.59;;;8.41;88.82
11912;BME280;6016;41.928;25.556;2023-03-01T08:15:07;99770.16;;;8.73;90.22
11912;BME280;6016;41.928;25.556;2023-03-01T08:17:34;99761.19;;;8.52;89.99
11912;BME280;6016;41.928;25.556;2023-03-01T08:20:01;99766.97;;;8.57;89.29
11912;BME280;6016;41.928;25.556;2023-03-01T08:22:30;99769.38;;;8.60;89.41
11912;BME280;6016;41.928;25.556;2023-03-01T08:24:56;99769.91;;;8.52;89.59
11912;BME280;6016;41.928;25.556;2023-03-01T08:27:23;99771.03;;;8.61;90.79
11912;BME280;6016;41.928;25.556;2023-03-01T08:29:50;99781.97;;;8.68;89.29
11912;BME280;6016;41.928;25.556;2023-03-01T08:32:17;99782.28;;;8.63;89.09
11912;BME280;6016;41.928;25.556;2023-03-01T08:34:46;99788.06;;;8.68;89.41
11912;BME280;6016;41.928;25.556;2023-03-01T08:37:13;99774.38;;;8.76;89.65
11912;BME280;6016;41.928;25.556;2023-03-01T08:39:41;99690.94;;;8.16;88.82
11912;BME280;6016;41.928;25.556;2023-03-01T08:42:08;99780.06;;;8.70;88.28
11912;BME280;6016;41.928;25.556;2023-03-01T08:44:34;99752.94;;;8.69;89.00
11912;BME280;6016;41.928;25.556;2023-03-01T08:47:01;99766.81;;;8.71;89.91
11912;BME280;6016;41.928;25.556;2023-03-01T08:49:30;99775.72;;;8.82;89.98
11912;BME280;6016;41.928;25.556;2023-03-01T08:51:57;99769.50;;;8.83;89.85
11912;BME280;6016;41.928;25.556;2023-03-01T08:54:24;99729.97;;;8.47;88.73
11912;BME280;6016;41.928;25.556;2023-03-01T08:56:52;99735.63;;;8.54;89.34
11912;BME280;6016;41.928;25.556;2023-03-01T08:59:19;99749.28;;;8.83;89.33
11912;BME280;6016;41.928;25.556;2023-03-01T09:01:46;99775.78;;;8.93;88.05
11912;BME280;6016;41.928;25.556;2023-03-01T09:04:14;99762.81;;;8.90;88.47
11912;BME280;6016;41.928;25.556;2023-03-01T09:06:42;99742.91;;;8.75;88.27
11912;BME280;6016;41.928;25.556;2023-03-01T09:09:12;99738.31;;;8.90;88.34
11912;BME280;6016;41.928;25.556;2023-03-01T09:11:41;99769.63;;;9.06;88.79
11912;BME280;6016;41.928;25.556;2023-03-01T09:14:10;99766.78;;;9.20;88.03
11912;BME280;6016;41.928;25.556;2023-03-01T09:16:37;99772.41;;;8.91;87.57
11912;BME280;6016;41.928;25.556;2023-03-01T09:19:05;99774.69;;;8.71;89.24
11912;BME280;6016;41.928;25.556;2023-03-01T09:21:32;99772.41;;;8.91;88.72
11912;BME280;6016;41.928;25.556;2023-03-01T09:23:59;99775.66;;;8.95;88.71
11912;BME280;6016;41.928;25.556;2023-03-01T09:26:26;99778.41;;;8.93;89.07
11912;BME280;6016;41.928;25.556;2023-03-01T09:28:55;99767.59;;;8.85;88.32
11912;BME280;6016;41.928;25.556;2023-03-01T09:31:24;99787.66;;;8.99;87.69
11912;BME280;6016;41.928;25.556;2023-03-01T09:33:52;99786.59;;;8.64;88.43
11912;BME280;6016;41.928;25.556;2023-03-01T09:36:21;99785.84;;;8.75;88.64
11912;BME280;6016;41.928;25.556;2023-03-01T09:38:49;99793.00;;;8.73;89.13
11912;BME280;6016;41.928;25.556;2023-03-01T09:41:38;99793.81;;;8.86;89.29
11912;BME280;6016;41.928;25.556;2023-03-01T09:44:16;99601.25;;;7.46;88.88
11912;BME280;6016;41.928;25.556;2023-03-01T09:46:46;99745.03;;;8.32;89.22
11912;BME280;6016;41.928;25.556;2023-03-01T09:49:16;99778.38;;;8.69;89.01
11912;BME280;6016;41.928;25.556;2023-03-01T09:51:53;99766.28;;;8.29;89.21
11912;BME280;6016;41.928;25.556;2023-03-01T09:54:21;99765.19;;;8.44;90.16
11912;BME280;6016;41.928;25.556;2023-03-01T09:56:57;99786.66;;;8.51;88.79
11912;BME280;6016;41.928;25.556;2023-03-01T09:59:31;99773.19;;;8.56;89.08
11912;BME280;6016;41.928;25.556;2023-03-01T10:02:23;99775.75;;;8.69;88.76
11912;BME280;6016;41.928;25.556;2023-03-01T10:04:53;99769.94;;;8.77;88.44
11912;BME280;6016;41.928;25.556;2023-03-01T10:07:28;99706.78;;;8.28;89.03
11912;BME280;6016;41.928;25.556;2023-03-01T10:09:59;99757.72;;;8.76;88.72
11912;BME280;6016;41.928;25.556;2023-03-01T10:12:33;99731.50;;;8.63;88.39
11912;BME280;6016;41.928;25.556;2023-03-01T10:15:05;99754.59;;;8.70;88.77
11912;BME280;6016;41.928;25.556;2023-03-01T10:17:41;99744.66;;;8.50;88.40
11912;BME280;6016;41.928;25.556;2023-03-01T10:20:18;99759.19;;;8.42;91.76
11912;BME280;6016;41.928;25.556;2023-03-01T10:22:45;99733.84;;;8.54;90.86
11912;BME280;6016;41.928;25.556;2023-03-01T10:25:17;99735.09;;;8.62;89.90
11912;BME280;6016;41.928;25.556;2023-03-01T10:27:51;99695.19;;;8.30;88.85
11912;BME280;6016;41.928;25.556;2023-03-01T10:30:21;99747.50;;;8.84;88.96
11912;BME280;6016;41.928;25.556;2023-03-01T10:32:51;99742.56;;;8.55;88.78
11912;BME280;6016;41.928;25.556;2023-03-01T10:35:21;99726.06;;;8.40;89.04
11912;BME280;6016;41.928;25.556;2023-03-01T10:38:03;99747.69;;;8.56;88.70
11912;BME280;6016;41.928;25.556;2023-03-01T10:40:30;99751.00;;;8.47;89.56
11912;BME280;6016;41.928;25.556;2023-03-01T10:42:58;99752.75;;;8.47;90.18
11912;BME280;6016;41.928;25.556;2023-03-01T10:45:35;99733.22;;;8.51;91.35
11912;BME280;6016;41.928;25.556;2023-03-01T10:48:12;99755.00;;;8.77;89.51
11912;BME280;6016;41.928;25.556;2023-03-01T10:50:40;99753.72;;;8.83;89.77
11912;BME280;6016;41.928;25.556;2023-03-01T10:53:21;99746.78;;;8.82;89.31
11912;BME280;6016;41.928;25.556;2023-03-01T10:55:57;99745.31;;;8.78;89.70
11912;BME280;6016;41.928;25.556;2023-03-01T10:58:25;99723.72;;;8.61;89.27
11912;BME280;6016;41.928;25.556;2023-03-01T11:00:53;99711.34;;;8.50;89.15
11912;BME280;6016;41.928;25.556;2023-03-01T11:03:24;99736.63;;;8.64;89.24
11912;BME280;6016;41.928;25.556;2023-03-01T11:06:03;99736.50;;;8.79;89.83
11912;BME280;6016;41.928;25.556;2023-03-01T11:08:40;99733.09;;;8.77;90.05
11912;BME280;6016;41.928;25.556;2023-03-01T11:11:24;99698.19;;;8.75;88.42
11912;BME280;6016;41.928;25.556;2023-03-01T11:13:55;99733.53;;;8.95;88.99
11912;BME280;6016;41.928;25.556;2023-03-01T11:16:27;99713.72;;;8.66;88.58
11912;BME280;6016;41.928;25.556;2023-03-01T11:19:17;99720.88;;;8.89;87.91
11912;BME280;6016;41.928;25.556;2023-03-01T11:21:54;99687.06;;;8.71;87.95
11912;BME280;6016;41.928;25.556;2023-03-01T11:24:28;99711.63;;;8.83;88.79
11912;BME280;6016;41.928;25.556;2023-03-01T11:26:56;99530.81;;;7.78;87.69
11912;BME280;6016;41.928;25.556;2023-03-01T11:29:29;99702.94;;;8.94;87.78
11912;BME280;6016;41.928;25.556;2023-03-01T11:32:00;99672.06;;;8.60;88.20
11912;BME280;6016;41.928;25.556;2023-03-01T11:34:42;99702.41;;;8.77;88.96
11912;BME280;6016;41.928;25.556;2023-03-01T11:37:18;99690.81;;;8.80;89.38
11912;BME280;6016;41.928;25.556;2023-03-01T11:39:54;99644.69;;;8.51;88.34
11912;BME280;6016;41.928;25.556;2023-03-01T11:42:30;99683.06;;;8.90;88.69
11912;BME280;6016;41.928;25.556;2023-03-01T11:45:07;99670.69;;;8.67;89.01
11912;BME280;6016;41.928;25.556;2023-03-01T11:47:47;99662.00;;;8.78;88.93
11912;BME280;6016;41.928;25.556;2023-03-01T11:50:28;99608.63;;;8.65;87.99
11912;BME280;6016;41.928;25.556;2023-03-01T11:53:11;99678.69;;;9.01;87.98
11912;BME280;6016;41.928;25.556;2023-03-01T11:55:55;99673.38;;;8.79;89.18
11912;BME280;6016;41.928;25.556;2023-03-01T11:58:46;99674.09;;;8.81;88.62
11912;BME280;6016;41.928;25.556;2023-03-01T12:01:39;99667.34;;;8.77;89.37
11912;BME280;6016;41.928;25.556;2023-03-01T12:07:06;99614.34;;;8.34;90.02
11912;BME280;6016;41.928;25.556;2023-03-01T12:09:55;99638.59;;;8.62;90.76
11912;BME280;6016;41.928;25.556;2023-03-01T12:12:30;99662.28;;;8.86;89.52
11912;BME280;6016;41.928;25.556;2023-03-01T12:15:40;99563.38;;;8.24;88.90
11912;BME280;6016;41.928;25.556;2023-03-01T12:18:32;99397.25;;;7.24;88.97
11912;BME280;6016;41.928;25.556;2023-03-01T12:21:14;99562.44;;;8.25;88.96
11912;BME280;6016;41.928;25.556;2023-03-01T12:24:07;99609.44;;;8.54;89.00
11912;BME280;6016;41.928;25.556;2023-03-01T12:26:42;99677.47;;;8.94;89.37
11912;BME280;6016;41.928;25.556;2023-03-01T12:29:25;99659.03;;;8.58;89.40
11912;BME280;6016;41.928;25.556;2023-03-01T12:32:20;99676.91;;;8.78;89.49
11912;BME280;6016;41.928;25.556;2023-03-01T12:37:56;99655.09;;;8.64;89.32
11912;BME280;6016;41.928;25.556;2023-03-01T12:40:46;99668.13;;;8.90;89.44
11912;BME280;6016;41.928;25.556;2023-03-01T12:43:27;99671.44;;;8.81;89.61
11912;BME280;6016;41.928;25.556;2023-03-01T12:46:06;99662.09;;;8.77;89.70
11912;BME280;6016;41.928;25.556;2023-03-01T12:48:42;99654.94;;;8.79;89.30
11912;BME280;6016;41.928;25.556;2023-03-01T12:51:14;99644.97;;;8.60;89.43
11912;BME280;6016;41.928;25.556;2023-03-01T12:53:45;99618.16;;;8.54;89.12
11912;BME280;6016;41.928;25.556;2023-03-01T12:56:17;99640.19;;;8.65;89.60
11912;BME280;6016;41.928;25.556;2023-03-01T12:58:53;99659.88;;;8.95;88.87
11912;BME280;6016;41.928;25.556;2023-03-01T13:01:31;99629.09;;;8.72;89.55
11912;BME280;6016;41.928;25.556;2023-03-01T13:04:07;99616.66;;;8.75;88.87
11912;BME280;6016;41.928;25.556;2023-03-01T13:06:44;99637.63;;;8.88;88.37
11912;BME280;6016;41.928;25.556;2023-03-01T13:09:22;99639.81;;;9.05;89.28
11912;BME280;6016;41.928;25.556;2023-03-01T13:11:52;99646.31;;;9.12;89.35
11912;BME280;6016;41.928;25.556;2023-03-01T13:14:45;99645.59;;;9.10;89.59
11912;BME280;6016;41.928;25.556;2023-03-01T13:17:33;99659.13;;;9.17;87.88
11912;BME280;6016;41.928;25.556;2023-03-01T13:20:13;99653.81;;;9.06;88.75
11912;BME280;6016;41.928;25.556;2023-03-01T13:22:40;99643.72;;;8.88;88.91
11912;BME280;6016;41.928;25.556;2023-03-01T13:25:17;99649.00;;;8.99;90.13
11912;BME280;6016;41.928;25.556;2023-03-01T13:27:47;99628.06;;;8.86;89.01
11912;BME280;6016;41.928;25.556;2023-03-01T13:30:41;99657.97;;;8.97;89.76
11912;BME280;6016;41.928;25.556;2023-03-01T13:33:44;99648.56;;;9.06;89.23
11912;BME280;6016;41.928;25.556;2023-03-01T13:36:47;99647.13;;;9.13;88.72
11912;BME280;6016;41.928;25.556;2023-03-01T13:39:28;99644.25;;;9.16;88.60